Naytahwaush, MN (56566)

1:19 PM CST on December 10, 2016 (GMT -0600)
Bad Medicine Lake, MN | | Change Station

Elev 1630 ft 47.11 °N, 95.41 °W | Updated 9 minutes ago

Partly Cloudy
Partly Cloudy
-0.8 °F
Feels Like -1 °F
N
1.0
Wind Variable Wind from SSE
Gusts 1.0 mph

Today
High -- | Low -- °F
--% Chance of Precip.
Yesterday
High -- | Low -- °F
Precip. -- in
Pressure 30.33 in
Visibility 10.0 miles
Clouds Clear
Windchill -1 °F
Dew Point -5 °F
Humidity 82%
Rainfall 0.00 in
Snow Depth Not available.
7:58 AM 4:32 PM
Waxing Gibbous, 85% visible
METAR KFSE 101914Z AUTO 36003KT 10SM CLR M17/M23 A3033 RMK AO2
Pressure 30.33 in
Visibility 10.0 miles
Clouds Clear
Windchill -1 °F
Dew Point -5 °F
Humidity 82%
Rainfall 0.00 in
Snow Depth Not available.
7:58 AM 4:32 PM
Waxing Gibbous, 85% visible
METAR KFSE 101914Z AUTO 36003KT 10SM CLR M17/M23 A3033 RMK AO2

10-Day Weather Forecast

Almanac

Astronomy

Dec. 10, 2016 Rise Set
Actual Time
Civil Twilight
Nautical Twilight
Astronomical Twilight
Moon
Length of Visible Light
Length of Day
Tomorrow will be .
, % of the Moon is Illuminated

Today's Extremes

State Highs State Lows

Community

WunderPhotos

Upload Photos

1,956,627 photos uploaded!

WunderBlog® & News

Nearby

Air Quality

  Air Quality AQ Index Pollutant
Not available.

Snow Depth

Station Depth Elevation

Earthquake Activity

City Distance Mag. Time & Date
Minimum magnitude displayed is 2.5.

Coastal Water Temperatures

Place Temperature

Stations

Nearby Weather Stations

Station Location Temp. Windchill Dew Point Humidity Wind Precip. Elev Updated Type
                   

Watches & Warnings

There are currently no watches in effect.